Home   Weather   Getholm   Past weeks
Flag for Finland

Past Weather in Getholm, Finland — Yesterday and Last 2 Weeks

Currently: 37 °F. Passing clouds. (Weather station: Helsinki-Vantaa, Finland). See more current weather

Past Weather in Getholm — Graph

°F

Getholm Temperature Yesterday

Maximum temperature yesterday: 61 °F (at 2:20 pm)
Minimum temperature yesterday: 39 °F (at 3:50 am)
Average temperature yesterday: 49 °F

High & Low Weather Summary for the Past Weeks

 TemperatureHumidityPressure
High63 °F (Apr 17, 2:50 pm)100% (Apr 5, 10:20 am)30.45 "Hg (Apr 5, 10:20 am)
Low28 °F (Apr 9, 12:50 am)19% (Apr 17, 2:50 pm)28.88 "Hg (Apr 5, 9:50 am)
Average41 °F64%29.85 "Hg
* Reported Apr 3 11:20 pm — Apr 18 11:50 pm, Getholm. Weather by CustomWeather, © 2021

Note: Actual official high and low records may vary slightly from our data, if they occured in-between our weather recording intervals... More about our weather records

Getholm Weather History for the Previous 24 Hours

Scroll right to see more
 ConditionsComfort  
Time TempWeatherWind HumidityBarometerVisibility
11:50 pm
Sun, Apr 18
39 °FClear.5 mph65%30.39 "Hg10 mi
11:20 pm39 °FClear.3 mph61%30.39 "Hg10 mi
10:50 pm48 °FPassing clouds.9 mph40%30.39 "HgN/A
10:20 pm45 °FClear.6 mph53%30.39 "Hg10 mi
9:50 pm41 °FClear.6 mph61%30.39 "Hg10 mi
9:20 pm45 °FClear.5 mph53%30.39 "Hg10 mi
8:50 pm48 °FClear.3 mph46%30.39 "Hg10 mi
8:20 pm54 °FSunny.5 mph33%30.39 "Hg10 mi
7:50 pm55 °FSunny.8 mph28%30.36 "Hg10 mi
7:20 pm55 °FSunny.9 mph28%30.36 "Hg10 mi
6:50 pm55 °FSunny.10 mph28%30.36 "Hg10 mi
6:20 pm57 °FSunny.10 mph27%30.36 "Hg10 mi
5:50 pm57 °FSunny.10 mph27%30.36 "Hg10 mi
5:20 pm59 °FSunny.12 mph25%30.36 "Hg10 mi
4:50 pm59 °FPassing clouds.10 mph25%30.36 "HgN/A
4:20 pm61 °FPassing clouds.10 mph25%30.36 "HgN/A
3:50 pm59 °FPassing clouds.10 mph25%30.36 "HgN/A
3:20 pm61 °FPassing clouds.10 mph22%30.39 "HgN/A
2:50 pm61 °FPassing clouds.10 mph22%30.39 "HgN/A
2:20 pm61 °FPassing clouds.10 mph23%30.39 "HgN/A
1:50 pm59 °FPassing clouds.12 mph23%30.42 "HgN/A
1:20 pm59 °FPassing clouds.10 mph23%30.42 "HgN/A
12:50 pm57 °FPassing clouds.12 mph27%30.42 "HgN/A
12:20 pm55 °FSunny.14 mph26%30.42 "Hg10 mi
11:20 am57 °FSunny.12 mph29%30.42 "Hg10 mi
10:50 am55 °FSunny.14 mph28%30.42 "Hg10 mi
10:20 am54 °FSunny.13 mph30%30.42 "Hg10 mi
9:50 am50 °FSunny.9 mph35%30.42 "Hg10 mi
9:20 am48 °FSunny.9 mph40%30.42 "Hg10 mi
8:50 am46 °FSunny.10 mph43%30.42 "Hg10 mi
8:20 am45 °FSunny.10 mph46%30.42 "Hg10 mi
7:50 am43 °FSunny.10 mph49%30.42 "Hg10 mi
7:20 am41 °FSunny.9 mph53%30.42 "Hg10 mi
6:50 am39 °FSunny.9 mph56%30.42 "Hg10 mi
6:20 am39 °FSunny.10 mph56%30.42 "Hg10 mi
5:50 am39 °FClear.9 mph56%30.42 "Hg10 mi
5:20 am39 °FClear.8 mph56%30.42 "Hg10 mi
4:50 am39 °FClear.8 mph56%30.42 "Hg10 mi
4:20 am41 °FClear.8 mph53%30.42 "Hg10 mi
3:50 am39 °FClear.8 mph56%30.42 "Hg10 mi
3:20 am41 °FClear.6 mph49%30.42 "Hg10 mi
2:50 am41 °FClear.8 mph53%30.42 "Hg10 mi
2:20 am43 °FClear.8 mph49%30.42 "Hg10 mi
1:50 am43 °FClear.7 mph49%30.42 "Hg10 mi
1:20 am43 °FClear.6 mph49%30.42 "Hg10 mi
Weather by CustomWeather, © 2021

See weather overview